sensor_id;sensor_type;location;lat;lon;timestamp;temperature;humidity
46364;DHT22;32071;49.036;9.344;2023-12-20T00:02:16;4.10;99.90
46364;DHT22;32071;49.036;9.344;2023-12-20T00:04:42;4.10;99.90
46364;DHT22;32071;49.036;9.344;2023-12-20T00:07:07;4.10;99.90
46364;DHT22;32071;49.036;9.344;2023-12-20T00:09:33;4.10;99.90
46364;DHT22;32071;49.036;9.344;2023-12-20T00:11:58;4.10;99.90
46364;DHT22;32071;49.036;9.344;2023-12-20T00:14:24;4.10;99.90
46364;DHT22;32071;49.036;9.344;2023-12-20T00:16:49;4.10;99.90
46364;DHT22;32071;49.036;9.344;2023-12-20T00:19:15;4.20;99.90
46364;DHT22;32071;49.036;9.344;2023-12-20T00:21:40;4.20;99.90
46364;DHT22;32071;49.036;9.344;2023-12-20T00:24:06;4.20;99.90
46364;DHT22;32071;49.036;9.344;2023-12-20T00:26:32;4.10;99.90
46364;DHT22;32071;49.036;9.344;2023-12-20T00:28:57;4.10;99.90
46364;DHT22;32071;49.036;9.344;2023-12-20T00:31:23;4.10;99.90
46364;DHT22;32071;49.036;9.344;2023-12-20T00:33:48;4.10;99.90
46364;DHT22;32071;49.036;9.344;2023-12-20T00:36:14;4.10;99.90
46364;DHT22;32071;49.036;9.344;2023-12-20T00:38:39;4.20;99.90
46364;DHT22;32071;49.036;9.344;2023-12-20T00:41:05;4.20;99.90
46364;DHT22;32071;49.036;9.344;2023-12-20T00:43:30;4.20;99.90
46364;DHT22;32071;49.036;9.344;2023-12-20T00:45:56;4.20;99.90
46364;DHT22;32071;49.036;9.344;2023-12-20T00:48:22;4.20;99.90
46364;DHT22;32071;49.036;9.344;2023-12-20T00:50:47;4.20;99.90
46364;DHT22;32071;49.036;9.344;2023-12-20T00:53:13;4.20;99.90
46364;DHT22;32071;49.036;9.344;2023-12-20T00:55:39;4.20;99.90
46364;DHT22;32071;49.036;9.344;2023-12-20T00:58:04;4.30;99.90
46364;DHT22;32071;49.036;9.344;2023-12-20T01:00:30;4.30;99.90
46364;DHT22;32071;49.036;9.344;2023-12-20T01:02:55;4.30;99.90
46364;DHT22;32071;49.036;9.344;2023-12-20T01:05:21;4.30;99.90
46364;DHT22;32071;49.036;9.344;2023-12-20T01:07:48;4.30;99.90
46364;DHT22;32071;49.036;9.344;2023-12-20T01:10:14;4.30;99.90
46364;DHT22;32071;49.036;9.344;2023-12-20T01:12:40;4.30;99.90
46364;DHT22;32071;49.036;9.344;2023-12-20T01:15:05;4.30;99.90
46364;DHT22;32071;49.036;9.344;2023-12-20T01:17:31;4.30;99.90
46364;DHT22;32071;49.036;9.344;2023-12-20T01:19:57;4.40;99.90
46364;DHT22;32071;49.036;9.344;2023-12-20T01:22:23;4.40;99.90
46364;DHT22;32071;49.036;9.344;2023-12-20T01:24:49;4.40;99.90
46364;DHT22;32071;49.036;9.344;2023-12-20T01:27:14;4.40;99.90
46364;DHT22;32071;49.036;9.344;2023-12-20T01:29:40;4.40;99.90
46364;DHT22;32071;49.036;9.344;2023-12-20T01:32:06;4.40;99.90
46364;DHT22;32071;49.036;9.344;2023-12-20T01:34:31;4.50;99.90
46364;DHT22;32071;49.036;9.344;2023-12-20T01:36:57;4.50;99.90
46364;DHT22;32071;49.036;9.344;2023-12-20T01:39:23;4.50;99.90
46364;DHT22;32071;49.036;9.344;2023-12-20T01:41:49;4.50;99.90
46364;DHT22;32071;49.036;9.344;2023-12-20T01:44:14;4.40;99.90
46364;DHT22;32071;49.036;9.344;2023-12-20T01:46:40;4.40;99.90
46364;DHT22;32071;49.036;9.344;2023-12-20T01:49:06;4.40;99.90
46364;DHT22;32071;49.036;9.344;2023-12-20T01:51:33;4.40;99.90
46364;DHT22;32071;49.036;9.344;2023-12-20T01:53:59;4.40;99.90
46364;DHT22;32071;49.036;9.344;2023-12-20T01:56:26;4.40;99.90
46364;DHT22;32071;49.036;9.344;2023-12-20T01:58:54;4.40;99.90
46364;DHT22;32071;49.036;9.344;2023-12-20T02:01:21;4.40;99.90
46364;DHT22;32071;49.036;9.344;2023-12-20T02:03:47;4.40;99.90
46364;DHT22;32071;49.036;9.344;2023-12-20T02:06:13;4.40;99.90
46364;DHT22;32071;49.036;9.344;2023-12-20T02:08:39;4.40;99.90
46364;DHT22;32071;49.036;9.344;2023-12-20T02:11:04;4.40;99.90
46364;DHT22;32071;49.036;9.344;2023-12-20T02:13:30;4.40;99.90
46364;DHT22;32071;49.036;9.344;2023-12-20T02:15:56;4.40;99.90
46364;DHT22;32071;49.036;9.344;2023-12-20T02:18:22;4.40;99.90
46364;DHT22;32071;49.036;9.344;2023-12-20T02:20:48;4.50;99.90
46364;DHT22;32071;49.036;9.344;2023-12-20T02:23:13;4.50;99.90
46364;DHT22;32071;49.036;9.344;2023-12-20T02:25:39;4.60;99.90
46364;DHT22;32071;49.036;9.344;2023-12-20T02:28:05;4.60;99.90
46364;DHT22;32071;49.036;9.344;2023-12-20T02:30:32;4.70;99.90
46364;DHT22;32071;49.036;9.344;2023-12-20T02:32:59;4.70;99.90
46364;DHT22;32071;49.036;9.344;2023-12-20T02:35:25;4.80;99.90
46364;DHT22;32071;49.036;9.344;2023-12-20T02:37:50;4.80;99.90
46364;DHT22;32071;49.036;9.344;2023-12-20T02:40:16;4.90;99.90
46364;DHT22;32071;49.036;9.344;2023-12-20T02:42:42;5.00;99.90
46364;DHT22;32071;49.036;9.344;2023-12-20T02:45:07;5.10;99.90
46364;DHT22;32071;49.036;9.344;2023-12-20T02:47:33;5.10;99.90
46364;DHT22;32071;49.036;9.344;2023-12-20T02:49:59;5.10;99.90
46364;DHT22;32071;49.036;9.344;2023-12-20T02:52:25;5.00;99.90
46364;DHT22;32071;49.036;9.344;2023-12-20T02:54:50;5.00;99.90
46364;DHT22;32071;49.036;9.344;2023-12-20T02:57:16;5.10;99.90
46364;DHT22;32071;49.036;9.344;2023-12-20T02:59:41;5.00;99.90
46364;DHT22;32071;49.036;9.344;2023-12-20T03:02:07;5.00;99.90
46364;DHT22;32071;49.036;9.344;2023-12-20T03:04:33;5.00;99.90
46364;DHT22;32071;49.036;9.344;2023-12-20T03:06:58;5.00;99.90
46364;DHT22;32071;49.036;9.344;2023-12-20T03:09:24;5.00;99.90
46364;DHT22;32071;49.036;9.344;2023-12-20T03:11:49;5.00;99.90
46364;DHT22;32071;49.036;9.344;2023-12-20T03:14:15;5.00;99.90
46364;DHT22;32071;49.036;9.344;2023-12-20T03:16:40;5.00;99.90
46364;DHT22;32071;49.036;9.344;2023-12-20T03:19:06;4.90;99.90
46364;DHT22;32071;49.036;9.344;2023-12-20T03:21:31;4.90;99.90
46364;DHT22;32071;49.036;9.344;2023-12-20T03:23:57;4.90;99.90
46364;DHT22;32071;49.036;9.344;2023-12-20T03:26:23;4.90;99.90
46364;DHT22;32071;49.036;9.344;2023-12-20T03:28:48;4.90;99.90
46364;DHT22;32071;49.036;9.344;2023-12-20T03:31:14;4.90;99.90
46364;DHT22;32071;49.036;9.344;2023-12-20T03:33:40;4.90;99.90
46364;DHT22;32071;49.036;9.344;2023-12-20T03:36:05;4.90;99.90
46364;DHT22;32071;49.036;9.344;2023-12-20T03:38:31;4.80;99.90
46364;DHT22;32071;49.036;9.344;2023-12-20T03:40:57;4.80;99.90
46364;DHT22;32071;49.036;9.344;2023-12-20T03:43:22;4.80;99.90
46364;DHT22;32071;49.036;9.344;2023-12-20T03:45:48;4.80;99.90
46364;DHT22;32071;49.036;9.344;2023-12-20T03:48:13;4.80;99.90
46364;DHT22;32071;49.036;9.344;2023-12-20T03:50:39;4.80;99.90
46364;DHT22;32071;49.036;9.344;2023-12-20T03:53:04;4.80;99.90
46364;DHT22;32071;49.036;9.344;2023-12-20T03:55:30;4.80;99.90
46364;DHT22;32071;49.036;9.344;2023-12-20T03:57:55;4.80;99.90
46364;DHT22;32071;49.036;9.344;2023-12-20T04:00:21;4.80;99.90
46364;DHT22;32071;49.036;9.344;2023-12-20T04:02:46;4.80;99.90
46364;DHT22;32071;49.036;9.344;2023-12-20T04:05:12;4.80;99.90
46364;DHT22;32071;49.036;9.344;2023-12-20T04:07:38;4.80;99.90
46364;DHT22;32071;49.036;9.344;2023-12-20T04:10:04;4.80;99.90
46364;DHT22;32071;49.036;9.344;2023-12-20T04:12:30;4.80;99.90
46364;DHT22;32071;49.036;9.344;2023-12-20T04:14:58;4.80;99.90
46364;DHT22;32071;49.036;9.344;2023-12-20T04:17:24;4.80;99.90
46364;DHT22;32071;49.036;9.344;2023-12-20T04:19:50;4.80;99.90
46364;DHT22;32071;49.036;9.344;2023-12-20T04:22:17;4.80;99.90
46364;DHT22;32071;49.036;9.344;2023-12-20T04:24:43;4.80;99.90
46364;DHT22;32071;49.036;9.344;2023-12-20T04:27:08;4.80;99.90
46364;DHT22;32071;49.036;9.344;2023-12-20T04:29:34;4.80;99.90
46364;DHT22;32071;49.036;9.344;2023-12-20T04:32:00;4.80;99.90
46364;DHT22;32071;49.036;9.344;2023-12-20T04:34:25;4.80;99.90
46364;DHT22;32071;49.036;9.344;2023-12-20T04:36:51;4.80;99.90
46364;DHT22;32071;49.036;9.344;2023-12-20T04:39:17;4.80;99.90
46364;DHT22;32071;49.036;9.344;2023-12-20T04:41:42;4.80;99.90
46364;DHT22;32071;49.036;9.344;2023-12-20T04:44:08;4.80;99.90
46364;DHT22;32071;49.036;9.344;2023-12-20T04:46:33;4.80;99.90
46364;DHT22;32071;49.036;9.344;2023-12-20T04:48:59;4.80;99.90
46364;DHT22;32071;49.036;9.344;2023-12-20T04:51:24;4.90;99.90
46364;DHT22;32071;49.036;9.344;2023-12-20T04:53:50;4.90;99.90
46364;DHT22;32071;49.036;9.344;2023-12-20T04:56:15;4.90;99.90
46364;DHT22;32071;49.036;9.344;2023-12-20T04:58:42;4.90;99.90
46364;DHT22;32071;49.036;9.344;2023-12-20T05:01:09;4.90;99.90
46364;DHT22;32071;49.036;9.344;2023-12-20T05:03:35;4.90;99.90
46364;DHT22;32071;49.036;9.344;2023-12-20T05:06:00;4.90;99.90
46364;DHT22;32071;49.036;9.344;2023-12-20T05:08:26;4.90;99.90
46364;DHT22;32071;49.036;9.344;2023-12-20T05:10:54;4.90;99.90
46364;DHT22;32071;49.036;9.344;2023-12-20T05:13:19;4.90;99.90
46364;DHT22;32071;49.036;9.344;2023-12-20T05:15:45;4.90;99.90
46364;DHT22;32071;49.036;9.344;2023-12-20T05:18:11;4.90;99.90
46364;DHT22;32071;49.036;9.344;2023-12-20T05:20:36;4.90;99.90
46364;DHT22;32071;49.036;9.344;2023-12-20T05:23:02;4.90;99.90
46364;DHT22;32071;49.036;9.344;2023-12-20T05:25:28;5.00;99.90
46364;DHT22;32071;49.036;9.344;2023-12-20T05:27:53;5.00;99.90
46364;DHT22;32071;49.036;9.344;2023-12-20T05:30:19;5.00;99.90
46364;DHT22;32071;49.036;9.344;2023-12-20T05:32:44;5.00;99.90
46364;DHT22;32071;49.036;9.344;2023-12-20T05:35:10;5.00;99.90
46364;DHT22;32071;49.036;9.344;2023-12-20T05:37:35;5.00;99.90
46364;DHT22;32071;49.036;9.344;2023-12-20T05:40:01;5.00;99.90
46364;DHT22;32071;49.036;9.344;2023-12-20T05:42:27;5.00;99.90
46364;DHT22;32071;49.036;9.344;2023-12-20T05:44:52;5.10;99.90
46364;DHT22;32071;49.036;9.344;2023-12-20T05:47:18;5.10;99.90
46364;DHT22;32071;49.036;9.344;2023-12-20T05:49:44;5.10;99.90
46364;DHT22;32071;49.036;9.344;2023-12-20T05:52:10;5.10;99.90
46364;DHT22;32071;49.036;9.344;2023-12-20T05:54:35;5.10;99.90
46364;DHT22;32071;49.036;9.344;2023-12-20T05:57:01;5.10;99.90
46364;DHT22;32071;49.036;9.344;2023-12-20T05:59:26;5.10;99.90
46364;DHT22;32071;49.036;9.344;2023-12-20T06:01:52;5.10;99.90
46364;DHT22;32071;49.036;9.344;2023-12-20T06:04:17;5.10;99.90
46364;DHT22;32071;49.036;9.344;2023-12-20T06:06:43;5.20;99.90
46364;DHT22;32071;49.036;9.344;2023-12-20T06:09:10;5.20;99.90
46364;DHT22;32071;49.036;9.344;2023-12-20T06:11:36;5.20;99.90
46364;DHT22;32071;49.036;9.344;2023-12-20T06:14:01;5.20;99.90
46364;DHT22;32071;49.036;9.344;2023-12-20T06:16:27;5.20;99.90
46364;DHT22;32071;49.036;9.344;2023-12-20T06:18:55;5.20;99.90
46364;DHT22;32071;49.036;9.344;2023-12-20T06:21:21;5.20;99.90
46364;DHT22;32071;49.036;9.344;2023-12-20T06:23:46;5.20;99.90
46364;DHT22;32071;49.036;9.344;2023-12-20T06:26:12;5.20;99.90
46364;DHT22;32071;49.036;9.344;2023-12-20T06:28:37;5.20;99.90
46364;DHT22;32071;49.036;9.344;2023-12-20T06:31:03;5.20;99.90
46364;DHT22;32071;49.036;9.344;2023-12-20T06:33:29;5.20;99.90
46364;DHT22;32071;49.036;9.344;2023-12-20T06:35:56;5.20;99.90
46364;DHT22;32071;49.036;9.344;2023-12-20T06:38:22;5.20;99.90
46364;DHT22;32071;49.036;9.344;2023-12-20T06:40:47;5.20;99.90
46364;DHT22;32071;49.036;9.344;2023-12-20T06:43:13;5.20;99.90
46364;DHT22;32071;49.036;9.344;2023-12-20T06:45:39;5.20;99.90
46364;DHT22;32071;49.036;9.344;2023-12-20T06:48:05;5.20;99.90
46364;DHT22;32071;49.036;9.344;2023-12-20T06:50:30;5.20;99.90
46364;DHT22;32071;49.036;9.344;2023-12-20T06:52:56;5.20;99.90
46364;DHT22;32071;49.036;9.344;2023-12-20T06:55:21;5.20;99.90
46364;DHT22;32071;49.036;9.344;2023-12-20T06:57:47;5.30;99.90
46364;DHT22;32071;49.036;9.344;2023-12-20T07:00:13;5.30;99.90
46364;DHT22;32071;49.036;9.344;2023-12-20T07:02:39;5.30;99.90
46364;DHT22;32071;49.036;9.344;2023-12-20T07:05:04;5.30;99.90
46364;DHT22;32071;49.036;9.344;2023-12-20T07:07:30;5.20;99.90
46364;DHT22;32071;49.036;9.344;2023-12-20T07:09:56;5.20;99.90
46364;DHT22;32071;49.036;9.344;2023-12-20T07:12:21;5.20;99.90
46364;DHT22;32071;49.036;9.344;2023-12-20T07:14:47;5.30;99.90
46364;DHT22;32071;49.036;9.344;2023-12-20T07:17:13;5.30;99.90
46364;DHT22;32071;49.036;9.344;2023-12-20T07:19:40;5.30;99.90
46364;DHT22;32071;49.036;9.344;2023-12-20T07:22:06;5.30;99.90
46364;DHT22;32071;49.036;9.344;2023-12-20T07:24:32;5.30;99.90
46364;DHT22;32071;49.036;9.344;2023-12-20T07:26:59;5.30;99.90
46364;DHT22;32071;49.036;9.344;2023-12-20T07:29:25;5.30;99.90
46364;DHT22;32071;49.036;9.344;2023-12-20T07:31:50;5.30;99.90
46364;DHT22;32071;49.036;9.344;2023-12-20T07:34:17;5.30;99.90
46364;DHT22;32071;49.036;9.344;2023-12-20T07:36:43;5.30;99.90
46364;DHT22;32071;49.036;9.344;2023-12-20T07:39:09;5.30;99.90
46364;DHT22;32071;49.036;9.344;2023-12-20T07:41:34;5.30;99.90
46364;DHT22;32071;49.036;9.344;2023-12-20T07:44:00;5.30;99.90
46364;DHT22;32071;49.036;9.344;2023-12-20T07:46:25;5.30;99.90
46364;DHT22;32071;49.036;9.344;2023-12-20T07:48:51;5.40;99.90
46364;DHT22;32071;49.036;9.344;2023-12-20T07:51:16;5.40;99.90
46364;DHT22;32071;49.036;9.344;2023-12-20T07:53:42;5.40;99.90
46364;DHT22;32071;49.036;9.344;2023-12-20T07:56:18;5.40;99.90
46364;DHT22;32071;49.036;9.344;2023-12-20T07:58:44;5.40;99.90
46364;DHT22;32071;49.036;9.344;2023-12-20T08:01:11;5.40;99.90
46364;DHT22;32071;49.036;9.344;2023-12-20T08:03:37;5.40;99.90
46364;DHT22;32071;49.036;9.344;2023-12-20T08:06:03;5.30;99.90
46364;DHT22;32071;49.036;9.344;2023-12-20T08:08:28;5.30;99.90
46364;DHT22;32071;49.036;9.344;2023-12-20T08:10:54;5.30;99.90
46364;DHT22;32071;49.036;9.344;2023-12-20T08:13:19;5.30;99.90
46364;DHT22;32071;49.036;9.344;2023-12-20T08:15:45;5.30;99.90
46364;DHT22;32071;49.036;9.344;2023-12-20T08:18:10;5.30;99.90
46364;DHT22;32071;49.036;9.344;2023-12-20T08:20:36;5.30;99.90
46364;DHT22;32071;49.036;9.344;2023-12-20T08:23:02;5.30;99.90
46364;DHT22;32071;49.036;9.344;2023-12-20T08:25:28;5.30;99.90
46364;DHT22;32071;49.036;9.344;2023-12-20T08:27:53;5.30;99.90
46364;DHT22;32071;49.036;9.344;2023-12-20T08:30:19;5.30;99.90
46364;DHT22;32071;49.036;9.344;2023-12-20T08:32:50;5.30;99.90
46364;DHT22;32071;49.036;9.344;2023-12-20T08:35:16;5.30;99.90
46364;DHT22;32071;49.036;9.344;2023-12-20T08:37:41;5.30;99.90
46364;DHT22;32071;49.036;9.344;2023-12-20T08:40:07;5.30;99.90
46364;DHT22;32071;49.036;9.344;2023-12-20T08:42:33;5.40;99.90
46364;DHT22;32071;49.036;9.344;2023-12-20T08:44:58;5.40;99.90
46364;DHT22;32071;49.036;9.344;2023-12-20T08:47:24;5.40;99.90
46364;DHT22;32071;49.036;9.344;2023-12-20T08:49:50;5.50;99.90
46364;DHT22;32071;49.036;9.344;2023-12-20T08:52:15;5.60;99.90
46364;DHT22;32071;49.036;9.344;2023-12-20T08:54:41;5.60;99.90
46364;DHT22;32071;49.036;9.344;2023-12-20T08:57:06;5.70;99.90
46364;DHT22;32071;49.036;9.344;2023-12-20T08:59:32;5.80;99.90
46364;DHT22;32071;49.036;9.344;2023-12-20T09:01:58;5.90;99.90
46364;DHT22;32071;49.036;9.344;2023-12-20T09:04:24;6.00;99.90
46364;DHT22;32071;49.036;9.344;2023-12-20T09:06:50;6.00;99.90
46364;DHT22;32071;49.036;9.344;2023-12-20T09:09:16;6.00;99.90
46364;DHT22;32071;49.036;9.344;2023-12-20T09:11:41;5.90;99.90
46364;DHT22;32071;49.036;9.344;2023-12-20T09:14:07;5.80;99.90
46364;DHT22;32071;49.036;9.344;2023-12-20T09:16:33;5.70;99.90
46364;DHT22;32071;49.036;9.344;2023-12-20T09:18:58;5.70;99.90
46364;DHT22;32071;49.036;9.344;2023-12-20T09:21:25;5.60;99.90
46364;DHT22;32071;49.036;9.344;2023-12-20T09:23:51;5.60;99.90
46364;DHT22;32071;49.036;9.344;2023-12-20T09:26:16;5.70;99.90
46364;DHT22;32071;49.036;9.344;2023-12-20T09:28:42;5.70;99.90
46364;DHT22;32071;49.036;9.344;2023-12-20T09:31:08;5.70;99.90
46364;DHT22;32071;49.036;9.344;2023-12-20T09:33:33;5.70;99.90
46364;DHT22;32071;49.036;9.344;2023-12-20T09:35:59;5.70;99.90
46364;DHT22;32071;49.036;9.344;2023-12-20T09:38:25;5.80;99.90
46364;DHT22;32071;49.036;9.344;2023-12-20T09:40:50;5.90;99.90
46364;DHT22;32071;49.036;9.344;2023-12-20T09:43:19;5.90;99.90
46364;DHT22;32071;49.036;9.344;2023-12-20T09:45:46;5.90;99.90
46364;DHT22;32071;49.036;9.344;2023-12-20T09:48:13;6.00;99.90
46364;DHT22;32071;49.036;9.344;2023-12-20T09:50:41;6.00;99.90
46364;DHT22;32071;49.036;9.344;2023-12-20T09:53:08;6.00;99.90
46364;DHT22;32071;49.036;9.344;2023-12-20T09:55:36;6.00;99.90
46364;DHT22;32071;49.036;9.344;2023-12-20T09:58:02;6.00;99.90
46364;DHT22;32071;49.036;9.344;2023-12-20T10:00:27;6.00;99.90
46364;DHT22;32071;49.036;9.344;2023-12-20T10:02:56;6.00;99.90
46364;DHT22;32071;49.036;9.344;2023-12-20T10:05:28;6.00;99.90
46364;DHT22;32071;49.036;9.344;2023-12-20T10:07:54;6.00;99.90
46364;DHT22;32071;49.036;9.344;2023-12-20T10:10:21;6.00;99.90
46364;DHT22;32071;49.036;9.344;2023-12-20T10:13:07;6.10;99.90
46364;DHT22;32071;49.036;9.344;2023-12-20T10:15:33;6.10;99.90
46364;DHT22;32071;49.036;9.344;2023-12-20T10:17:59;6.00;99.90
46364;DHT22;32071;49.036;9.344;2023-12-20T10:20:25;6.10;99.90
46364;DHT22;32071;49.036;9.344;2023-12-20T10:22:52;6.20;99.90
46364;DHT22;32071;49.036;9.344;2023-12-20T10:25:20;6.30;99.90
46364;DHT22;32071;49.036;9.344;2023-12-20T10:27:45;6.40;99.90
46364;DHT22;32071;49.036;9.344;2023-12-20T10:30:11;6.40;99.90
46364;DHT22;32071;49.036;9.344;2023-12-20T10:32:37;6.50;99.90
46364;DHT22;32071;49.036;9.344;2023-12-20T10:35:03;6.40;99.90
46364;DHT22;32071;49.036;9.344;2023-12-20T10:37:29;6.40;99.90
46364;DHT22;32071;49.036;9.344;2023-12-20T10:39:54;6.40;99.90
46364;DHT22;32071;49.036;9.344;2023-12-20T10:42:26;6.40;99.90
46364;DHT22;32071;49.036;9.344;2023-12-20T10:44:51;6.40;99.90
46364;DHT22;32071;49.036;9.344;2023-12-20T10:47:20;6.30;99.90
46364;DHT22;32071;49.036;9.344;2023-12-20T10:49:46;6.30;99.90
46364;DHT22;32071;49.036;9.344;2023-12-20T10:52:12;6.30;99.90
46364;DHT22;32071;49.036;9.344;2023-12-20T10:54:39;6.40;99.90
46364;DHT22;32071;49.036;9.344;2023-12-20T10:57:06;6.40;99.90
46364;DHT22;32071;49.036;9.344;2023-12-20T10:59:37;6.50;99.90
46364;DHT22;32071;49.036;9.344;2023-12-20T11:02:04;6.50;99.90
46364;DHT22;32071;49.036;9.344;2023-12-20T11:04:54;6.50;99.90
46364;DHT22;32071;49.036;9.344;2023-12-20T11:07:37;6.50;99.90
46364;DHT22;32071;49.036;9.344;2023-12-20T11:10:19;6.40;99.90
46364;DHT22;32071;49.036;9.344;2023-12-20T11:12:53;6.30;99.90
46364;DHT22;32071;49.036;9.344;2023-12-20T11:15:20;6.30;99.90
46364;DHT22;32071;49.036;9.344;2023-12-20T11:17:47;6.30;99.90
46364;DHT22;32071;49.036;9.344;2023-12-20T11:20:23;6.30;99.90
46364;DHT22;32071;49.036;9.344;2023-12-20T11:22:53;6.30;99.90
46364;DHT22;32071;49.036;9.344;2023-12-20T11:25:19;6.30;99.90
46364;DHT22;32071;49.036;9.344;2023-12-20T11:28:08;6.20;99.90
46364;DHT22;32071;49.036;9.344;2023-12-20T11:30:48;6.30;99.90
46364;DHT22;32071;49.036;9.344;2023-12-20T11:33:15;6.20;99.90
46364;DHT22;32071;49.036;9.344;2023-12-20T11:35:42;6.30;99.90
46364;DHT22;32071;49.036;9.344;2023-12-20T11:38:09;6.30;99.90
46364;DHT22;32071;49.036;9.344;2023-12-20T11:40:35;6.20;99.90
46364;DHT22;32071;49.036;9.344;2023-12-20T11:43:02;6.20;99.90
46364;DHT22;32071;49.036;9.344;2023-12-20T11:45:27;6.20;99.90
46364;DHT22;32071;49.036;9.344;2023-12-20T11:47:53;6.10;99.90
46364;DHT22;32071;49.036;9.344;2023-12-20T11:50:20;6.10;99.90
46364;DHT22;32071;49.036;9.344;2023-12-20T11:52:47;6.20;99.90
46364;DHT22;32071;49.036;9.344;2023-12-20T11:55:13;6.30;99.90
46364;DHT22;32071;49.036;9.344;2023-12-20T11:57:38;6.30;99.90
46364;DHT22;32071;49.036;9.344;2023-12-20T12:00:05;6.30;99.90
46364;DHT22;32071;49.036;9.344;2023-12-20T12:02:31;6.30;99.90
46364;DHT22;32071;49.036;9.344;2023-12-20T12:04:57;6.40;99.90
46364;DHT22;32071;49.036;9.344;2023-12-20T12:07:24;6.30;99.90
46364;DHT22;32071;49.036;9.344;2023-12-20T12:09:50;6.30;99.90
46364;DHT22;32071;49.036;9.344;2023-12-20T12:12:16;6.30;99.90
46364;DHT22;32071;49.036;9.344;2023-12-20T12:14:44;6.30;99.90
46364;DHT22;32071;49.036;9.344;2023-12-20T12:17:13;6.30;99.90
46364;DHT22;32071;49.036;9.344;2023-12-20T12:19:40;6.30;99.90
46364;DHT22;32071;49.036;9.344;2023-12-20T12:24:33;6.30;99.90
46364;DHT22;32071;49.036;9.344;2023-12-20T12:26:59;6.30;99.90
46364;DHT22;32071;49.036;9.344;2023-12-20T12:29:25;6.40;99.90
46364;DHT22;32071;49.036;9.344;2023-12-20T12:31:51;6.40;99.90
46364;DHT22;32071;49.036;9.344;2023-12-20T12:34:17;6.40;99.90
46364;DHT22;32071;49.036;9.344;2023-12-20T12:36:43;6.40;99.90
46364;DHT22;32071;49.036;9.344;2023-12-20T12:39:12;6.40;99.90
46364;DHT22;32071;49.036;9.344;2023-12-20T12:41:40;6.40;99.90
46364;DHT22;32071;49.036;9.344;2023-12-20T12:44:06;6.30;99.90
46364;DHT22;32071;49.036;9.344;2023-12-20T12:46:31;6.30;99.90
46364;DHT22;32071;49.036;9.344;2023-12-20T12:48:58;6.30;99.90
46364;DHT22;32071;49.036;9.344;2023-12-20T12:51:23;6.30;99.90
46364;DHT22;32071;49.036;9.344;2023-12-20T12:53:49;6.30;99.90
46364;DHT22;32071;49.036;9.344;2023-12-20T12:56:15;6.20;99.90
46364;DHT22;32071;49.036;9.344;2023-12-20T12:58:41;6.20;99.90
46364;DHT22;32071;49.036;9.344;2023-12-20T13:01:07;6.20;99.90
46364;DHT22;32071;49.036;9.344;2023-12-20T13:03:32;6.20;99.90
46364;DHT22;32071;49.036;9.344;2023-12-20T13:05:59;6.20;99.90
46364;DHT22;32071;49.036;9.344;2023-12-20T13:08:25;6.20;99.90
46364;DHT22;32071;49.036;9.344;2023-12-20T13:10:51;6.20;99.90
46364;DHT22;32071;49.036;9.344;2023-12-20T13:13:16;6.20;99.90
46364;DHT22;32071;49.036;9.344;2023-12-20T13:15:42;6.10;99.90
46364;DHT22;32071;49.036;9.344;2023-12-20T13:18:07;6.10;99.90
46364;DHT22;32071;49.036;9.344;2023-12-20T13:20:33;6.10;99.90
46364;DHT22;32071;49.036;9.344;2023-12-20T13:22:59;6.00;99.90
46364;DHT22;32071;49.036;9.344;2023-12-20T13:25:24;6.00;99.90
46364;DHT22;32071;49.036;9.344;2023-12-20T13:27:50;6.00;99.90
46364;DHT22;32071;49.036;9.344;2023-12-20T13:30:18;6.00;99.90
46364;DHT22;32071;49.036;9.344;2023-12-20T13:32:44;6.10;99.90
46364;DHT22;32071;49.036;9.344;2023-12-20T13:35:09;6.10;99.90
46364;DHT22;32071;49.036;9.344;2023-12-20T13:37:35;6.00;99.90
46364;DHT22;32071;49.036;9.344;2023-12-20T13:40:00;6.00;99.90
46364;DHT22;32071;49.036;9.344;2023-12-20T13:42:28;5.90;99.90
46364;DHT22;32071;49.036;9.344;2023-12-20T13:44:53;5.90;99.90
46364;DHT22;32071;49.036;9.344;2023-12-20T13:47:19;5.90;99.90
46364;DHT22;32071;49.036;9.344;2023-12-20T13:49:45;5.90;99.90
46364;DHT22;32071;49.036;9.344;2023-12-20T13:52:11;5.90;99.90
46364;DHT22;32071;49.036;9.344;2023-12-20T13:54:37;5.90;99.90
46364;DHT22;32071;49.036;9.344;2023-12-20T13:57:03;5.80;99.90
46364;DHT22;32071;49.036;9.344;2023-12-20T13:59:28;5.80;99.90
46364;DHT22;32071;49.036;9.344;2023-12-20T14:01:54;5.70;99.90
46364;DHT22;32071;49.036;9.344;2023-12-20T14:04:20;5.60;99.90
46364;DHT22;32071;49.036;9.344;2023-12-20T14:06:47;5.50;99.90
46364;DHT22;32071;49.036;9.344;2023-12-20T14:09:12;5.50;99.90
46364;DHT22;32071;49.036;9.344;2023-12-20T14:11:38;5.40;99.90
46364;DHT22;32071;49.036;9.344;2023-12-20T14:14:07;5.30;99.90
46364;DHT22;32071;49.036;9.344;2023-12-20T14:16:33;5.30;99.90
46364;DHT22;32071;49.036;9.344;2023-12-20T14:18:59;5.20;99.90
46364;DHT22;32071;49.036;9.344;2023-12-20T14:21:24;5.20;99.90
46364;DHT22;32071;49.036;9.344;2023-12-20T14:23:50;5.10;99.90
46364;DHT22;32071;49.036;9.344;2023-12-20T14:26:17;5.10;99.90
46364;DHT22;32071;49.036;9.344;2023-12-20T14:28:42;5.20;99.90
46364;DHT22;32071;49.036;9.344;2023-12-20T14:31:09;5.10;99.90
46364;DHT22;32071;49.036;9.344;2023-12-20T14:33:35;5.10;99.90
46364;DHT22;32071;49.036;9.344;2023-12-20T14:36:01;5.10;99.90
46364;DHT22;32071;49.036;9.344;2023-12-20T14:38:30;5.10;99.90
46364;DHT22;32071;49.036;9.344;2023-12-20T14:40:56;5.10;99.90
46364;DHT22;32071;49.036;9.344;2023-12-20T14:43:22;5.00;99.90
46364;DHT22;32071;49.036;9.344;2023-12-20T14:45:48;5.00;99.90
46364;DHT22;32071;49.036;9.344;2023-12-20T14:48:13;4.90;99.90
46364;DHT22;32071;49.036;9.344;2023-12-20T14:50:39;4.90;99.90
46364;DHT22;32071;49.036;9.344;2023-12-20T14:53:06;4.90;99.90
46364;DHT22;32071;49.036;9.344;2023-12-20T14:55:32;4.90;99.90
46364;DHT22;32071;49.036;9.344;2023-12-20T14:57:57;4.90;99.90
46364;DHT22;32071;49.036;9.344;2023-12-20T15:00:23;4.90;99.90
46364;DHT22;32071;49.036;9.344;2023-12-20T15:02:48;4.90;99.90
46364;DHT22;32071;49.036;9.344;2023-12-20T15:05:14;4.90;99.90
46364;DHT22;32071;49.036;9.344;2023-12-20T15:07:40;4.80;99.90
46364;DHT22;32071;49.036;9.344;2023-12-20T15:10:06;4.90;99.90
46364;DHT22;32071;49.036;9.344;2023-12-20T15:12:32;4.80;99.90
46364;DHT22;32071;49.036;9.344;2023-12-20T15:14:59;4.80;99.90
46364;DHT22;32071;49.036;9.344;2023-12-20T15:17:25;4.80;99.90
46364;DHT22;32071;49.036;9.344;2023-12-20T15:19:51;4.80;99.90
46364;DHT22;32071;49.036;9.344;2023-12-20T15:22:16;4.80;99.90
46364;DHT22;32071;49.036;9.344;2023-12-20T15:24:42;4.90;99.90
46364;DHT22;32071;49.036;9.344;2023-12-20T15:27:09;4.90;99.90
46364;DHT22;32071;49.036;9.344;2023-12-20T15:29:35;4.80;99.90
46364;DHT22;32071;49.036;9.344;2023-12-20T15:32:01;4.80;99.90
46364;DHT22;32071;49.036;9.344;2023-12-20T15:34:29;4.90;99.90
46364;DHT22;32071;49.036;9.344;2023-12-20T15:36:54;4.90;99.90
46364;DHT22;32071;49.036;9.344;2023-12-20T15:39:20;4.90;99.90
46364;DHT22;32071;49.036;9.344;2023-12-20T15:41:46;4.90;99.90